メインページ
METAR-TAF:

METAR-TAF

空港 :

ホーチミン, ベトナム

タンソンニャット国際空港

緯度: 10-49N, 経度: 106-40E, 海抜: 19m

現時点の気象観測

当レポートは19分前の12:00(UTC)に作成
の風 5kt、東/南東から西の間で変化する
気温 30°C
湿度 49%
気圧 1011 hPa
視程10km以上
高度1700ftの雲はほとんどない
高度5000ftの雲は散在している

METAR: VVTS 241200Z 17005KT 110V260 9999 FEW017 SCT050 30/18 Q1011 NOSIG

時間: 19:19 (12:19 UTC)

予報

当レポートは1時間19分前の11:00(UTC)に作成
予報は24日の 12時(UTC)から 25日の 18時(UTC)まで有効
南東の風 6kt
視程10km以上
高度1700ftの雲は散在している

TAF: VVTS 241100Z 2412/2518 13006KT 9999 SCT017

4,000以上の空港の気象観測と天気予報(METAR報とTAF報)

利用可能な観測所は地図上に黄色い丸と赤い丸で示す。

丸の上にカーソルを重ねると観測所名を参照できる。

次にクリックすると気象観測と天気予報を参照できる。

マップの切り替え:黒色「×」印の緑ボタンをクリックして拡大、「-」印の緑ボタンをクリックして縮小、緑色の三角印をクリックして隣りの地図に切り替え


METAR-TAF: